sensor_id;sensor_type;location;lat;lon;timestamp;pressure;altitude;pressure_sealevel;temperature;humidity
59608;BME280;45426;44.726;10.390;2023-04-07T00:00:53;100660.66;;;5.54;100.00
59608;BME280;45426;44.726;10.390;2023-04-07T00:03:19;100665.16;;;5.59;100.00
59608;BME280;45426;44.726;10.390;2023-04-07T00:05:44;100655.19;;;5.59;100.00
59608;BME280;45426;44.726;10.390;2023-04-07T00:08:10;100656.28;;;5.39;100.00
59608;BME280;45426;44.726;10.390;2023-04-07T00:10:35;100654.81;;;5.47;100.00
59608;BME280;45426;44.726;10.390;2023-04-07T00:13:01;100649.69;;;5.64;100.00
59608;BME280;45426;44.726;10.390;2023-04-07T00:15:27;100648.25;;;5.53;100.00
59608;BME280;45426;44.726;10.390;2023-04-07T00:17:52;100639.88;;;5.55;100.00
59608;BME280;45426;44.726;10.390;2023-04-07T00:20:18;100642.44;;;5.65;100.00
59608;BME280;45426;44.726;10.390;2023-04-07T00:22:43;100644.63;;;5.44;100.00
59608;BME280;45426;44.726;10.390;2023-04-07T00:25:09;100637.84;;;5.47;100.00
59608;BME280;45426;44.726;10.390;2023-04-07T00:27:35;100636.22;;;5.64;100.00
59608;BME280;45426;44.726;10.390;2023-04-07T00:30:01;100634.72;;;5.58;100.00
59608;BME280;45426;44.726;10.390;2023-04-07T00:32:26;100631.66;;;5.65;100.00
59608;BME280;45426;44.726;10.390;2023-04-07T00:34:52;100638.72;;;5.23;100.00
59608;BME280;45426;44.726;10.390;2023-04-07T00:37:17;100629.78;;;5.28;100.00
59608;BME280;45426;44.726;10.390;2023-04-07T00:39:43;100633.72;;;5.16;100.00
59608;BME280;45426;44.726;10.390;2023-04-07T00:42:09;100632.16;;;5.10;100.00
59608;BME280;45426;44.726;10.390;2023-04-07T00:44:35;100629.16;;;4.93;100.00
59608;BME280;45426;44.726;10.390;2023-04-07T00:47:00;100629.25;;;5.06;100.00
59608;BME280;45426;44.726;10.390;2023-04-07T00:49:26;100618.06;;;4.99;100.00
59608;BME280;45426;44.726;10.390;2023-04-07T00:51:54;100618.50;;;4.82;100.00
59608;BME280;45426;44.726;10.390;2023-04-07T00:54:20;100613.75;;;4.98;100.00
59608;BME280;45426;44.726;10.390;2023-04-07T00:56:46;100605.16;;;5.34;100.00
59608;BME280;45426;44.726;10.390;2023-04-07T00:59:11;100594.91;;;5.69;100.00
59608;BME280;45426;44.726;10.390;2023-04-07T01:07:12;100604.03;;;5.87;100.00
59608;BME280;45426;44.726;10.390;2023-04-07T01:10:03;100594.75;;;5.79;100.00
59608;BME280;45426;44.726;10.390;2023-04-07T01:15:15;100596.41;;;4.85;100.00
59608;BME280;45426;44.726;10.390;2023-04-07T01:17:44;100589.81;;;4.54;100.00
59608;BME280;45426;44.726;10.390;2023-04-07T01:20:15;100580.34;;;4.99;100.00
59608;BME280;45426;44.726;10.390;2023-04-07T01:22:46;100587.19;;;4.67;100.00
59608;BME280;45426;44.726;10.390;2023-04-07T01:28:09;100585.19;;;5.54;100.00
59608;BME280;45426;44.726;10.390;2023-04-07T01:30:39;100582.13;;;6.08;100.00
59608;BME280;45426;44.726;10.390;2023-04-07T01:33:09;100567.78;;;6.26;100.00
59608;BME280;45426;44.726;10.390;2023-04-07T01:35:36;100586.56;;;5.84;100.00
59608;BME280;45426;44.726;10.390;2023-04-07T01:38:02;100586.44;;;5.76;100.00
59608;BME280;45426;44.726;10.390;2023-04-07T01:40:28;100583.50;;;5.58;100.00
59608;BME280;45426;44.726;10.390;2023-04-07T01:42:56;100591.47;;;5.31;100.00
59608;BME280;45426;44.726;10.390;2023-04-07T01:45:22;100588.84;;;5.06;100.00
59608;BME280;45426;44.726;10.390;2023-04-07T01:47:48;100590.66;;;4.73;100.00
59608;BME280;45426;44.726;10.390;2023-04-07T01:50:15;100589.38;;;4.65;100.00
59608;BME280;45426;44.726;10.390;2023-04-07T01:52:41;100589.53;;;4.55;100.00
59608;BME280;45426;44.726;10.390;2023-04-07T01:55:09;100587.41;;;4.28;100.00
59608;BME280;45426;44.726;10.390;2023-04-07T01:57:34;100591.13;;;4.08;100.00
59608;BME280;45426;44.726;10.390;2023-04-07T02:00:00;100585.34;;;4.20;100.00
59608;BME280;45426;44.726;10.390;2023-04-07T02:02:26;100589.78;;;4.05;100.00
59608;BME280;45426;44.726;10.390;2023-04-07T02:04:56;100580.66;;;4.31;100.00
59608;BME280;45426;44.726;10.390;2023-04-07T02:09:57;100585.75;;;4.32;100.00
59608;BME280;45426;44.726;10.390;2023-04-07T02:12:25;100583.59;;;4.77;100.00
59608;BME280;45426;44.726;10.390;2023-04-07T02:14:53;100584.75;;;5.47;100.00
59608;BME280;45426;44.726;10.390;2023-04-07T02:17:20;100590.28;;;5.56;100.00
59608;BME280;45426;44.726;10.390;2023-04-07T02:19:48;100594.91;;;4.98;100.00
59608;BME280;45426;44.726;10.390;2023-04-07T02:22:15;100584.69;;;4.95;100.00
59608;BME280;45426;44.726;10.390;2023-04-07T02:24:41;100591.00;;;4.66;100.00
59608;BME280;45426;44.726;10.390;2023-04-07T02:27:07;100588.91;;;5.39;100.00
59608;BME280;45426;44.726;10.390;2023-04-07T02:29:32;100587.25;;;5.24;100.00
59608;BME280;45426;44.726;10.390;2023-04-07T02:31:58;100585.03;;;5.45;100.00
59608;BME280;45426;44.726;10.390;2023-04-07T02:34:23;100581.66;;;5.73;100.00
59608;BME280;45426;44.726;10.390;2023-04-07T02:36:48;100588.84;;;4.44;100.00
59608;BME280;45426;44.726;10.390;2023-04-07T02:39:14;100607.94;;;3.55;100.00
59608;BME280;45426;44.726;10.390;2023-04-07T02:41:40;100606.09;;;3.16;100.00
59608;BME280;45426;44.726;10.390;2023-04-07T02:44:05;100608.59;;;2.97;100.00
59608;BME280;45426;44.726;10.390;2023-04-07T02:46:30;100604.31;;;2.96;100.00
59608;BME280;45426;44.726;10.390;2023-04-07T02:48:56;100608.59;;;2.97;100.00
59608;BME280;45426;44.726;10.390;2023-04-07T02:51:21;100607.25;;;3.44;100.00
59608;BME280;45426;44.726;10.390;2023-04-07T02:53:47;100598.22;;;3.64;100.00
59608;BME280;45426;44.726;10.390;2023-04-07T02:56:12;100595.41;;;3.80;100.00
59608;BME280;45426;44.726;10.390;2023-04-07T02:58:38;100599.03;;;3.94;100.00
59608;BME280;45426;44.726;10.390;2023-04-07T03:01:03;100597.38;;;3.98;100.00
59608;BME280;45426;44.726;10.390;2023-04-07T03:03:29;100599.56;;;3.27;100.00
59608;BME280;45426;44.726;10.390;2023-04-07T03:05:54;100608.53;;;3.07;100.00
59608;BME280;45426;44.726;10.390;2023-04-07T03:08:20;100597.84;;;3.42;100.00
59608;BME280;45426;44.726;10.390;2023-04-07T03:10:45;100597.00;;;4.10;100.00
59608;BME280;45426;44.726;10.390;2023-04-07T03:13:11;100583.94;;;3.98;100.00
59608;BME280;45426;44.726;10.390;2023-04-07T03:15:40;100587.16;;;4.48;100.00
59608;BME280;45426;44.726;10.390;2023-04-07T03:18:06;100584.84;;;3.88;100.00
59608;BME280;45426;44.726;10.390;2023-04-07T03:20:31;100576.72;;;3.94;100.00
59608;BME280;45426;44.726;10.390;2023-04-07T03:22:56;100578.16;;;4.15;100.00
59608;BME280;45426;44.726;10.390;2023-04-07T03:25:22;100569.59;;;4.56;100.00
59608;BME280;45426;44.726;10.390;2023-04-07T03:27:47;100578.94;;;4.16;100.00
59608;BME280;45426;44.726;10.390;2023-04-07T03:30:13;100573.38;;;4.31;100.00
59608;BME280;45426;44.726;10.390;2023-04-07T03:32:38;100568.75;;;4.13;100.00
59608;BME280;45426;44.726;10.390;2023-04-07T03:35:04;100570.91;;;3.81;100.00
59608;BME280;45426;44.726;10.390;2023-04-07T03:37:30;100571.78;;;3.77;100.00
59608;BME280;45426;44.726;10.390;2023-04-07T03:39:55;100569.38;;;4.04;100.00
59608;BME280;45426;44.726;10.390;2023-04-07T03:42:21;100575.81;;;4.03;100.00
59608;BME280;45426;44.726;10.390;2023-04-07T03:44:46;100574.53;;;4.25;100.00
59608;BME280;45426;44.726;10.390;2023-04-07T03:47:12;100569.72;;;4.22;100.00
59608;BME280;45426;44.726;10.390;2023-04-07T03:49:37;100573.66;;;4.05;100.00
59608;BME280;45426;44.726;10.390;2023-04-07T03:52:03;100578.97;;;3.81;100.00
59608;BME280;45426;44.726;10.390;2023-04-07T03:54:29;100584.41;;;3.42;100.00
59608;BME280;45426;44.726;10.390;2023-04-07T03:56:55;100592.06;;;3.93;100.00
59608;BME280;45426;44.726;10.390;2023-04-07T03:59:21;100596.44;;;4.37;100.00
59608;BME280;45426;44.726;10.390;2023-04-07T04:01:47;100595.13;;;4.35;100.00
59608;BME280;45426;44.726;10.390;2023-04-07T04:04:12;100595.06;;;4.16;100.00
59608;BME280;45426;44.726;10.390;2023-04-07T04:06:38;100600.16;;;4.65;100.00
59608;BME280;45426;44.726;10.390;2023-04-07T04:09:03;100600.97;;;4.66;100.00
59608;BME280;45426;44.726;10.390;2023-04-07T04:11:29;100604.69;;;4.70;100.00
59608;BME280;45426;44.726;10.390;2023-04-07T04:13:56;100595.09;;;4.83;100.00
59608;BME280;45426;44.726;10.390;2023-04-07T04:16:21;100604.38;;;4.96;100.00
59608;BME280;45426;44.726;10.390;2023-04-07T04:18:46;100609.47;;;5.16;100.00
59608;BME280;45426;44.726;10.390;2023-04-07T04:21:12;100611.22;;;4.16;100.00
59608;BME280;45426;44.726;10.390;2023-04-07T04:23:37;100605.31;;;3.84;100.00
59608;BME280;45426;44.726;10.390;2023-04-07T04:26:03;100603.75;;;4.07;100.00
59608;BME280;45426;44.726;10.390;2023-04-07T04:28:28;100601.88;;;4.08;100.00
59608;BME280;45426;44.726;10.390;2023-04-07T04:30:54;100599.78;;;4.29;100.00
59608;BME280;45426;44.726;10.390;2023-04-07T04:33:20;100598.78;;;4.20;100.00
59608;BME280;45426;44.726;10.390;2023-04-07T04:35:45;100604.59;;;4.32;100.00
59608;BME280;45426;44.726;10.390;2023-04-07T04:38:11;100609.22;;;4.94;100.00
59608;BME280;45426;44.726;10.390;2023-04-07T04:40:36;100601.25;;;4.40;100.00
59608;BME280;45426;44.726;10.390;2023-04-07T04:43:02;100603.38;;;3.90;100.00
59608;BME280;45426;44.726;10.390;2023-04-07T04:45:31;100596.31;;;3.99;100.00
59608;BME280;45426;44.726;10.390;2023-04-07T04:47:57;100601.94;;;4.51;100.00
59608;BME280;45426;44.726;10.390;2023-04-07T04:50:22;100597.81;;;4.59;100.00
59608;BME280;45426;44.726;10.390;2023-04-07T04:52:47;100595.72;;;4.75;100.00
59608;BME280;45426;44.726;10.390;2023-04-07T04:55:13;100599.25;;;4.75;100.00
59608;BME280;45426;44.726;10.390;2023-04-07T04:57:38;100599.22;;;4.32;100.00
59608;BME280;45426;44.726;10.390;2023-04-07T05:00:05;100593.53;;;4.34;100.00
59608;BME280;45426;44.726;10.390;2023-04-07T05:02:32;100593.34;;;4.73;100.00
59608;BME280;45426;44.726;10.390;2023-04-07T05:04:57;100587.91;;;5.35;100.00
59608;BME280;45426;44.726;10.390;2023-04-07T05:07:23;100593.44;;;5.77;100.00
59608;BME280;45426;44.726;10.390;2023-04-07T05:09:48;100591.09;;;5.89;100.00
59608;BME280;45426;44.726;10.390;2023-04-07T05:12:14;100591.28;;;5.60;100.00
59608;BME280;45426;44.726;10.390;2023-04-07T05:14:40;100591.59;;;5.58;100.00
59608;BME280;45426;44.726;10.390;2023-04-07T05:17:05;100579.59;;;4.75;100.00
59608;BME280;45426;44.726;10.390;2023-04-07T05:19:30;100581.06;;;4.86;100.00
59608;BME280;45426;44.726;10.390;2023-04-07T05:21:56;100573.72;;;5.30;100.00
59608;BME280;45426;44.726;10.390;2023-04-07T05:24:23;100573.56;;;5.02;100.00
59608;BME280;45426;44.726;10.390;2023-04-07T05:26:50;100562.63;;;4.55;100.00
59608;BME280;45426;44.726;10.390;2023-04-07T05:29:15;100560.69;;;4.13;100.00
59608;BME280;45426;44.726;10.390;2023-04-07T05:31:41;100570.28;;;3.95;100.00
59608;BME280;45426;44.726;10.390;2023-04-07T05:34:06;100571.13;;;3.90;100.00
59608;BME280;45426;44.726;10.390;2023-04-07T05:36:32;100569.94;;;3.72;100.00
59608;BME280;45426;44.726;10.390;2023-04-07T05:38:58;100569.47;;;3.94;100.00
59608;BME280;45426;44.726;10.390;2023-04-07T05:41:23;100570.22;;;4.24;100.00
59608;BME280;45426;44.726;10.390;2023-04-07T05:43:48;100559.19;;;4.25;100.00
59608;BME280;45426;44.726;10.390;2023-04-07T05:46:14;100558.66;;;4.91;100.00
59608;BME280;45426;44.726;10.390;2023-04-07T05:48:39;100560.88;;;4.64;100.00
59608;BME280;45426;44.726;10.390;2023-04-07T05:51:05;100557.84;;;5.09;100.00
59608;BME280;45426;44.726;10.390;2023-04-07T05:53:30;100570.28;;;4.86;100.00
59608;BME280;45426;44.726;10.390;2023-04-07T05:55:56;100560.47;;;4.95;100.00
59608;BME280;45426;44.726;10.390;2023-04-07T05:58:21;100565.59;;;5.49;100.00
59608;BME280;45426;44.726;10.390;2023-04-07T06:00:46;100566.78;;;6.22;100.00
59608;BME280;45426;44.726;10.390;2023-04-07T06:03:12;100573.06;;;7.09;100.00
59608;BME280;45426;44.726;10.390;2023-04-07T06:05:37;100570.69;;;7.75;100.00
59608;BME280;45426;44.726;10.390;2023-04-07T06:08:07;100570.81;;;8.02;100.00
59608;BME280;45426;44.726;10.390;2023-04-07T06:10:33;100563.16;;;7.95;100.00
59608;BME280;45426;44.726;10.390;2023-04-07T06:12:58;100563.34;;;9.22;100.00
59608;BME280;45426;44.726;10.390;2023-04-07T06:15:23;100567.28;;;10.16;100.00
59608;BME280;45426;44.726;10.390;2023-04-07T06:17:49;100562.25;;;10.44;100.00
59608;BME280;45426;44.726;10.390;2023-04-07T06:20:14;100570.38;;;10.44;100.00
59608;BME280;45426;44.726;10.390;2023-04-07T06:22:40;100564.09;;;11.57;100.00
59608;BME280;45426;44.726;10.390;2023-04-07T06:25:05;100560.72;;;12.68;100.00
59608;BME280;45426;44.726;10.390;2023-04-07T06:27:31;100550.38;;;11.54;100.00
59608;BME280;45426;44.726;10.390;2023-04-07T06:29:57;100551.38;;;11.82;100.00
59608;BME280;45426;44.726;10.390;2023-04-07T06:32:23;100540.88;;;14.28;100.00
59608;BME280;45426;44.726;10.390;2023-04-07T06:34:49;100547.19;;;15.38;100.00
59608;BME280;45426;44.726;10.390;2023-04-07T06:37:14;100552.38;;;15.43;100.00
59608;BME280;45426;44.726;10.390;2023-04-07T06:39:41;100546.91;;;17.19;100.00
59608;BME280;45426;44.726;10.390;2023-04-07T06:42:06;100557.38;;;15.61;100.00
59608;BME280;45426;44.726;10.390;2023-04-07T06:44:32;100550.19;;;16.72;100.00
59608;BME280;45426;44.726;10.390;2023-04-07T06:46:57;100561.69;;;16.81;100.00
59608;BME280;45426;44.726;10.390;2023-04-07T06:49:22;100543.81;;;18.55;100.00
59608;BME280;45426;44.726;10.390;2023-04-07T06:51:49;100543.56;;;18.74;100.00
59608;BME280;45426;44.726;10.390;2023-04-07T06:54:15;100541.00;;;17.51;100.00
59608;BME280;45426;44.726;10.390;2023-04-07T06:56:41;100555.69;;;19.57;100.00
59608;BME280;45426;44.726;10.390;2023-04-07T06:59:07;100553.41;;;20.17;95.03
59608;BME280;45426;44.726;10.390;2023-04-07T07:01:33;100550.41;;;21.25;86.90
59608;BME280;45426;44.726;10.390;2023-04-07T07:03:58;100551.72;;;20.95;84.97
59608;BME280;45426;44.726;10.390;2023-04-07T07:06:27;100538.63;;;27.24;64.85
59608;BME280;45426;44.726;10.390;2023-04-07T07:08:53;100546.69;;;27.60;61.79
59608;BME280;45426;44.726;10.390;2023-04-07T07:11:18;100551.06;;;29.95;54.72
59608;BME280;45426;44.726;10.390;2023-04-07T07:13:44;100539.22;;;31.11;52.39
59608;BME280;45426;44.726;10.390;2023-04-07T07:16:10;100546.75;;;28.56;52.73
59608;BME280;45426;44.726;10.390;2023-04-07T07:18:37;100551.50;;;27.34;49.50
59608;BME280;45426;44.726;10.390;2023-04-07T07:21:03;100558.97;;;22.08;57.67
59608;BME280;45426;44.726;10.390;2023-04-07T07:23:28;100554.50;;;19.51;73.23
59608;BME280;45426;44.726;10.390;2023-04-07T07:25:54;100549.50;;;24.52;64.75
59608;BME280;45426;44.726;10.390;2023-04-07T07:28:19;100556.63;;;23.24;67.09
59608;BME280;45426;44.726;10.390;2023-04-07T07:30:46;100549.22;;;24.22;60.19
59608;BME280;45426;44.726;10.390;2023-04-07T07:33:11;100537.63;;;29.09;55.01
59608;BME280;45426;44.726;10.390;2023-04-07T07:35:37;100542.25;;;26.37;52.79
59608;BME280;45426;44.726;10.390;2023-04-07T07:38:02;100553.22;;;25.62;53.01
59608;BME280;45426;44.726;10.390;2023-04-07T07:40:28;100554.53;;;25.73;50.14
59608;BME280;45426;44.726;10.390;2023-04-07T07:42:53;100545.56;;;26.77;49.56
59608;BME280;45426;44.726;10.390;2023-04-07T07:45:19;100546.88;;;24.65;48.24
59608;BME280;45426;44.726;10.390;2023-04-07T07:47:44;100547.38;;;23.61;49.68
59608;BME280;45426;44.726;10.390;2023-04-07T07:50:10;100549.31;;;25.03;51.45
59608;BME280;45426;44.726;10.390;2023-04-07T07:52:35;100546.56;;;22.31;51.08
59608;BME280;45426;44.726;10.390;2023-04-07T07:55:01;100539.25;;;22.85;52.04
59608;BME280;45426;44.726;10.390;2023-04-07T07:57:27;100528.31;;;22.75;56.94
59608;BME280;45426;44.726;10.390;2023-04-07T07:59:52;100529.34;;;22.05;61.10
59608;BME280;45426;44.726;10.390;2023-04-07T08:02:18;100528.16;;;22.06;56.99
59608;BME280;45426;44.726;10.390;2023-04-07T08:04:43;100532.97;;;18.80;66.43
59608;BME280;45426;44.726;10.390;2023-04-07T08:07:09;100543.19;;;20.00;64.07
59608;BME280;45426;44.726;10.390;2023-04-07T08:09:36;100537.25;;;19.76;66.19
59608;BME280;45426;44.726;10.390;2023-04-07T08:12:01;100530.94;;;19.93;63.31
59608;BME280;45426;44.726;10.390;2023-04-07T08:14:28;100540.06;;;18.18;75.69
59608;BME280;45426;44.726;10.390;2023-04-07T08:16:53;100541.88;;;19.36;70.09
59608;BME280;45426;44.726;10.390;2023-04-07T08:19:19;100523.84;;;22.50;63.17
59608;BME280;45426;44.726;10.390;2023-04-07T08:21:44;100528.75;;;24.36;57.90
59608;BME280;45426;44.726;10.390;2023-04-07T08:24:10;100530.44;;;25.14;54.56
59608;BME280;45426;44.726;10.390;2023-04-07T08:26:35;100533.34;;;21.41;57.76
59608;BME280;45426;44.726;10.390;2023-04-07T08:29:01;100546.91;;;19.12;85.82
59608;BME280;45426;44.726;10.390;2023-04-07T08:31:26;100537.38;;;22.41;95.41
59608;BME280;45426;44.726;10.390;2023-04-07T08:33:52;100539.38;;;22.75;91.60
59608;BME280;45426;44.726;10.390;2023-04-07T08:36:24;100542.91;;;21.22;100.00
59608;BME280;45426;44.726;10.390;2023-04-07T08:38:50;100551.00;;;20.77;100.00
59608;BME280;45426;44.726;10.390;2023-04-07T08:41:23;100550.28;;;16.79;100.00
59608;BME280;45426;44.726;10.390;2023-04-07T08:43:52;100543.56;;;18.15;100.00
59608;BME280;45426;44.726;10.390;2023-04-07T08:46:20;100544.25;;;16.96;100.00
59608;BME280;45426;44.726;10.390;2023-04-07T08:48:50;100547.81;;;16.97;100.00
59608;BME280;45426;44.726;10.390;2023-04-07T08:51:31;100544.28;;;18.64;100.00
59608;BME280;45426;44.726;10.390;2023-04-07T08:56:31;100532.09;;;19.71;100.00
59608;BME280;45426;44.726;10.390;2023-04-07T08:58:57;100525.38;;;19.57;100.00
59608;BME280;45426;44.726;10.390;2023-04-07T09:01:24;100533.94;;;19.16;100.00
59608;BME280;45426;44.726;10.390;2023-04-07T09:03:51;100531.19;;;17.91;100.00
59608;BME280;45426;44.726;10.390;2023-04-07T09:06:16;100527.81;;;18.12;100.00
59608;BME280;45426;44.726;10.390;2023-04-07T09:08:42;100528.19;;;19.86;100.00
59608;BME280;45426;44.726;10.390;2023-04-07T09:11:07;100523.41;;;19.47;100.00
59608;BME280;45426;44.726;10.390;2023-04-07T09:13:32;100522.59;;;19.50;100.00
59608;BME280;45426;44.726;10.390;2023-04-07T09:16:00;100525.63;;;19.09;100.00
59608;BME280;45426;44.726;10.390;2023-04-07T09:18:27;100524.63;;;20.29;100.00
59608;BME280;45426;44.726;10.390;2023-04-07T09:28:58;100522.31;;;18.71;100.00
59608;BME280;45426;44.726;10.390;2023-04-07T09:31:44;100516.34;;;19.68;100.00
59608;BME280;45426;44.726;10.390;2023-04-07T09:34:32;100505.66;;;19.41;100.00
59608;BME280;45426;44.726;10.390;2023-04-07T09:36:58;100499.06;;;18.58;100.00
59608;BME280;45426;44.726;10.390;2023-04-07T09:39:24;100504.13;;;19.54;100.00
59608;BME280;45426;44.726;10.390;2023-04-07T09:41:50;100512.03;;;18.57;100.00
59608;BME280;45426;44.726;10.390;2023-04-07T09:44:19;100485.97;;;19.39;100.00
59608;BME280;45426;44.726;10.390;2023-04-07T09:49:17;100493.13;;;20.12;100.00
59608;BME280;45426;44.726;10.390;2023-04-07T09:52:01;100495.50;;;17.16;100.00
59608;BME280;45426;44.726;10.390;2023-04-07T09:56:59;100491.13;;;19.48;100.00
59608;BME280;45426;44.726;10.390;2023-04-07T09:59:27;100491.16;;;19.73;100.00
59608;BME280;45426;44.726;10.390;2023-04-07T10:01:53;100491.53;;;19.57;100.00
59608;BME280;45426;44.726;10.390;2023-04-07T10:04:18;100476.19;;;19.67;100.00
59608;BME280;45426;44.726;10.390;2023-04-07T10:06:45;100476.19;;;20.24;100.00
59608;BME280;45426;44.726;10.390;2023-04-07T10:09:12;100473.06;;;19.86;100.00
59608;BME280;45426;44.726;10.390;2023-04-07T10:11:38;100474.22;;;20.07;100.00
59608;BME280;45426;44.726;10.390;2023-04-07T10:14:05;100467.50;;;19.29;100.00
59608;BME280;45426;44.726;10.390;2023-04-07T10:16:31;100461.97;;;19.22;100.00
59608;BME280;45426;44.726;10.390;2023-04-07T10:18:57;100465.09;;;19.24;100.00
59608;BME280;45426;44.726;10.390;2023-04-07T10:21:22;100457.97;;;19.01;100.00
59608;BME280;45426;44.726;10.390;2023-04-07T10:23:58;100460.22;;;18.77;100.00
59608;BME280;45426;44.726;10.390;2023-04-07T10:26:29;100454.78;;;18.85;100.00
59608;BME280;45426;44.726;10.390;2023-04-07T10:29:01;100456.03;;;19.09;100.00
59608;BME280;45426;44.726;10.390;2023-04-07T10:31:29;100452.72;;;18.67;100.00
59608;BME280;45426;44.726;10.390;2023-04-07T10:33:54;100444.66;;;19.25;100.00
59608;BME280;45426;44.726;10.390;2023-04-07T10:36:21;100441.47;;;19.08;100.00
59608;BME280;45426;44.726;10.390;2023-04-07T10:41:38;100436.84;;;19.77;100.00
59608;BME280;45426;44.726;10.390;2023-04-07T10:44:04;100435.16;;;18.97;100.00
59608;BME280;45426;44.726;10.390;2023-04-07T10:49:11;100426.50;;;19.02;100.00
59608;BME280;45426;44.726;10.390;2023-04-07T10:51:38;100426.91;;;18.97;100.00
59608;BME280;45426;44.726;10.390;2023-04-07T10:54:17;100422.44;;;18.63;100.00
59608;BME280;45426;44.726;10.390;2023-04-07T10:59:37;100418.47;;;18.54;100.00
59608;BME280;45426;44.726;10.390;2023-04-07T11:04:42;100414.16;;;17.87;100.00
59608;BME280;45426;44.726;10.390;2023-04-07T11:07:08;100406.31;;;18.62;100.00
59608;BME280;45426;44.726;10.390;2023-04-07T11:09:34;100408.16;;;18.40;100.00
59608;BME280;45426;44.726;10.390;2023-04-07T11:11:59;100409.44;;;18.60;100.00
59608;BME280;45426;44.726;10.390;2023-04-07T11:14:29;100407.59;;;18.06;100.00
59608;BME280;45426;44.726;10.390;2023-04-07T11:16:56;100404.91;;;18.13;100.00
59608;BME280;45426;44.726;10.390;2023-04-07T11:19:22;100398.03;;;18.55;100.00
59608;BME280;45426;44.726;10.390;2023-04-07T11:21:47;100408.69;;;17.90;100.00
59608;BME280;45426;44.726;10.390;2023-04-07T11:24:32;100415.00;;;17.94;100.00
59608;BME280;45426;44.726;10.390;2023-04-07T11:26:58;100404.66;;;17.77;100.00
59608;BME280;45426;44.726;10.390;2023-04-07T11:29:30;100405.47;;;17.33;100.00
59608;BME280;45426;44.726;10.390;2023-04-07T11:32:00;100409.63;;;17.16;100.00
59608;BME280;45426;44.726;10.390;2023-04-07T11:34:33;100398.78;;;17.82;100.00
59608;BME280;45426;44.726;10.390;2023-04-07T11:37:25;100397.22;;;17.81;100.00
59608;BME280;45426;44.726;10.390;2023-04-07T11:39:56;100394.19;;;17.45;100.00
59608;BME280;45426;44.726;10.390;2023-04-07T11:42:36;100404.22;;;17.75;100.00
59608;BME280;45426;44.726;10.390;2023-04-07T11:45:02;100399.69;;;17.49;100.00
59608;BME280;45426;44.726;10.390;2023-04-07T11:47:36;100399.72;;;17.52;100.00
59608;BME280;45426;44.726;10.390;2023-04-07T11:50:02;100398.56;;;18.01;100.00
59608;BME280;45426;44.726;10.390;2023-04-07T11:52:27;100399.66;;;17.93;100.00
59608;BME280;45426;44.726;10.390;2023-04-07T11:54:53;100401.78;;;17.18;100.00
59608;BME280;45426;44.726;10.390;2023-04-07T11:57:26;100401.31;;;17.53;100.00
59608;BME280;45426;44.726;10.390;2023-04-07T12:00:08;100396.56;;;17.50;100.00
59608;BME280;45426;44.726;10.390;2023-04-07T12:02:35;100392.63;;;17.44;100.00
59608;BME280;45426;44.726;10.390;2023-04-07T12:05:01;100393.72;;;17.39;100.00
59608;BME280;45426;44.726;10.390;2023-04-07T12:07:27;100402.75;;;17.36;100.00
59608;BME280;45426;44.726;10.390;2023-04-07T12:09:52;100394.72;;;17.65;100.00
59608;BME280;45426;44.726;10.390;2023-04-07T12:12:28;100401.47;;;17.75;100.00
59608;BME280;45426;44.726;10.390;2023-04-07T12:14:54;100398.84;;;17.41;100.00
59608;BME280;45426;44.726;10.390;2023-04-07T12:17:25;100399.66;;;17.41;100.00
59608;BME280;45426;44.726;10.390;2023-04-07T12:19:51;100402.69;;;16.92;100.00
59608;BME280;45426;44.726;10.390;2023-04-07T12:22:17;100397.41;;;17.13;100.00
59608;BME280;45426;44.726;10.390;2023-04-07T12:24:43;100403.19;;;17.42;100.00
59608;BME280;45426;44.726;10.390;2023-04-07T12:27:08;100396.59;;;16.75;100.00
59608;BME280;45426;44.726;10.390;2023-04-07T12:29:34;100392.75;;;17.14;100.00
59608;BME280;45426;44.726;10.390;2023-04-07T12:32:01;100401.31;;;16.75;100.00
59608;BME280;45426;44.726;10.390;2023-04-07T12:34:26;100399.22;;;16.61;100.00
59608;BME280;45426;44.726;10.390;2023-04-07T12:36:52;100401.28;;;16.71;100.00
59608;BME280;45426;44.726;10.390;2023-04-07T12:39:18;100384.91;;;16.78;100.00
59608;BME280;45426;44.726;10.390;2023-04-07T12:41:44;100388.28;;;17.02;100.00
59608;BME280;45426;44.726;10.390;2023-04-07T12:44:17;100392.44;;;16.55;100.00
59608;BME280;45426;44.726;10.390;2023-04-07T12:46:42;100401.84;;;16.54;100.00
59608;BME280;45426;44.726;10.390;2023-04-07T12:49:08;100402.88;;;16.76;100.00
59608;BME280;45426;44.726;10.390;2023-04-07T12:51:33;100393.66;;;16.87;100.00
59608;BME280;45426;44.726;10.390;2023-04-07T12:53:59;100388.50;;;16.82;100.00
59608;BME280;45426;44.726;10.390;2023-04-07T12:56:25;100393.91;;;16.45;100.00
59608;BME280;45426;44.726;10.390;2023-04-07T12:58:52;100394.47;;;16.58;100.00
59608;BME280;45426;44.726;10.390;2023-04-07T13:01:17;100398.72;;;16.85;100.00
59608;BME280;45426;44.726;10.390;2023-04-07T13:03:43;100390.63;;;17.00;100.00
59608;BME280;45426;44.726;10.390;2023-04-07T13:06:08;100389.19;;;16.79;100.00
59608;BME280;45426;44.726;10.390;2023-04-07T13:08:35;100381.66;;;16.69;100.00
59608;BME280;45426;44.726;10.390;2023-04-07T13:11:00;100378.34;;;17.27;100.00
59608;BME280;45426;44.726;10.390;2023-04-07T13:13:25;100386.50;;;16.49;100.00